createdAt,value
2022-12-22T00:02:33.582Z,2.47
2022-12-22T00:05:19.644Z,0.80
2022-12-22T00:08:05.503Z,3.10
2022-12-22T00:10:51.387Z,5.38
2022-12-22T00:13:37.349Z,1.25
2022-12-22T00:16:23.319Z,1.25
2022-12-22T00:19:09.355Z,0.63
2022-12-22T00:21:55.056Z,1.25
2022-12-22T00:24:40.486Z,1.52
2022-12-22T00:27:38.222Z,4.03
2022-12-22T00:30:32.638Z,4.65
2022-12-22T00:33:19.645Z,4.13
2022-12-22T00:36:05.688Z,1.45
2022-12-22T00:38:51.486Z,2.38
2022-12-22T00:41:37.299Z,1.88
2022-12-22T00:44:23.305Z,1.33
2022-12-22T00:47:08.634Z,1.55
2022-12-22T00:49:55.501Z,2.70
2022-12-22T00:52:43.017Z,4.97
2022-12-22T00:55:35.035Z,2.35
2022-12-22T00:58:23.053Z,3.13
2022-12-22T01:01:08.962Z,0.77
2022-12-22T01:03:54.856Z,2.20
2022-12-22T01:06:50.911Z,0.85
2022-12-22T01:09:36.540Z,1.10
2022-12-22T01:12:33.759Z,2.22
2022-12-22T01:15:20.009Z,2.20
2022-12-22T01:18:05.983Z,2.03
2022-12-22T01:20:51.182Z,1.55
2022-12-22T01:23:36.920Z,2.83
2022-12-22T01:26:22.737Z,1.40
2022-12-22T01:29:08.630Z,1.25
2022-12-22T01:31:54.524Z,4.18
2022-12-22T01:34:40.532Z,1.73
2022-12-22T01:37:26.250Z,0.88
2022-12-22T01:40:12.258Z,1.75
2022-12-22T01:42:58.226Z,0.75
2022-12-22T01:45:50.711Z,1.38
2022-12-22T01:51:39.652Z,3.53
2022-12-22T01:54:26.200Z,0.70
2022-12-22T01:57:11.964Z,1.17
2022-12-22T01:59:57.929Z,0.88
2022-12-22T02:02:45.470Z,1.15
2022-12-22T02:05:33.797Z,3.00
2022-12-22T02:08:44.081Z,2.38
2022-12-22T02:12:06.919Z,0.52
2022-12-22T02:15:18.628Z,1.10
2022-12-22T02:18:37.665Z,0.65
2022-12-22T02:21:37.269Z,0.82
2022-12-22T02:24:55.056Z,3.72
2022-12-22T02:27:42.820Z,2.85
2022-12-22T02:30:29.178Z,1.30
2022-12-22T02:33:14.498Z,2.65
2022-12-22T02:36:36.586Z,0.88
2022-12-22T02:40:04.375Z,2.57
2022-12-22T02:43:08.874Z,1.40
2022-12-22T02:46:29.273Z,0.80
2022-12-22T02:49:20.351Z,1.88
2022-12-22T02:52:11.264Z,1.48
2022-12-22T02:54:58.142Z,0.68
2022-12-22T02:57:44.028Z,0.82
2022-12-22T03:00:30.577Z,0.82
2022-12-22T03:03:17.316Z,1.38
2022-12-22T03:06:03.376Z,5.90
2022-12-22T03:08:49.220Z,0.40
2022-12-22T03:11:35.123Z,1.35
2022-12-22T03:14:20.963Z,1.15
2022-12-22T03:17:06.745Z,0.65
2022-12-22T03:19:51.955Z,0.57
2022-12-22T03:22:37.636Z,0.75
2022-12-22T03:25:23.838Z,0.43
2022-12-22T03:27:51.174Z,0.47
2022-12-22T03:30:18.588Z,0.57
2022-12-22T03:32:45.883Z,2.35
2022-12-22T03:35:13.154Z,0.55
2022-12-22T03:37:40.460Z,0.30
2022-12-22T03:40:08.319Z,0.45
2022-12-22T03:42:53.586Z,1.58
2022-12-22T03:45:59.295Z,0.47
2022-12-22T03:48:26.181Z,0.73
2022-12-22T03:50:53.262Z,0.40
2022-12-22T03:53:20.592Z,0.30
2022-12-22T03:55:47.865Z,1.20
2022-12-22T03:58:15.147Z,1.02
2022-12-22T04:00:42.185Z,0.30
2022-12-22T04:03:09.710Z,1.23
2022-12-22T04:05:37.106Z,1.00
2022-12-22T04:08:04.144Z,0.28
2022-12-22T04:10:49.989Z,0.35
2022-12-22T04:13:17.301Z,4.72
2022-12-22T04:15:44.209Z,0.38
2022-12-22T04:18:11.236Z,0.30
2022-12-22T04:20:38.147Z,0.28
2022-12-22T04:23:05.021Z,0.40
2022-12-22T04:25:32.323Z,0.25
2022-12-22T04:27:59.379Z,0.88
2022-12-22T04:30:26.665Z,0.38
2022-12-22T04:32:53.750Z,2.05
2022-12-22T04:35:20.652Z,1.08
2022-12-22T04:37:48.012Z,0.22
2022-12-22T04:40:14.910Z,0.35
2022-12-22T04:42:41.781Z,1.42
2022-12-22T04:45:09.358Z,1.60
2022-12-22T04:47:36.201Z,0.57
2022-12-22T04:50:03.839Z,3.85
2022-12-22T04:52:30.840Z,4.28
2022-12-22T04:54:57.715Z,2.67
2022-12-22T04:57:24.660Z,1.42
2022-12-22T04:59:51.552Z,1.63
2022-12-22T05:02:18.556Z,1.23
2022-12-22T05:04:45.536Z,0.47
2022-12-22T05:07:12.407Z,1.52
2022-12-22T05:09:40.201Z,3.80
2022-12-22T05:12:27.221Z,2.83
2022-12-22T05:14:54.111Z,2.83
2022-12-22T05:17:21.117Z,0.70
2022-12-22T05:19:48.245Z,2.53
2022-12-22T05:22:15.131Z,3.45
2022-12-22T05:24:42.016Z,0.77
2022-12-22T05:27:11.268Z,0.40
2022-12-22T05:29:38.234Z,0.52
2022-12-22T05:32:05.391Z,0.82
2022-12-22T05:34:32.282Z,5.25
2022-12-22T05:36:59.189Z,1.17
2022-12-22T05:39:26.088Z,0.73
2022-12-22T05:41:52.970Z,4.07
2022-12-22T05:44:19.890Z,1.67
2022-12-22T05:46:46.857Z,3.60
2022-12-22T05:49:13.905Z,1.55
2022-12-22T05:51:40.983Z,3.80
2022-12-22T05:54:09.479Z,2.47
2022-12-22T05:56:36.795Z,3.58
2022-12-22T05:59:04.337Z,2.78
2022-12-22T06:01:31.680Z,0.88
2022-12-22T06:04:00.668Z,3.35
2022-12-22T06:06:28.501Z,2.28
2022-12-22T06:08:55.828Z,2.60
2022-12-22T06:11:22.765Z,2.70
2022-12-22T06:13:50.301Z,3.88
2022-12-22T06:16:18.002Z,3.08
2022-12-22T06:18:45.123Z,4.20
2022-12-22T06:21:12.041Z,0.80
2022-12-22T06:23:39.066Z,6.57
2022-12-22T06:26:06.060Z,3.90
2022-12-22T06:28:32.993Z,4.93
2022-12-22T06:31:00.394Z,1.67
2022-12-22T06:33:27.312Z,5.20
2022-12-22T06:35:58.896Z,3.17
2022-12-22T06:38:28.109Z,2.95
2022-12-22T06:40:55.170Z,2.92
2022-12-22T06:43:22.116Z,5.72
2022-12-22T06:45:49.411Z,1.25
2022-12-22T06:48:16.751Z,3.63
2022-12-22T06:50:43.854Z,2.80
2022-12-22T06:53:11.074Z,7.47
2022-12-22T06:55:38.395Z,3.00
2022-12-22T06:58:05.861Z,2.47
2022-12-22T07:00:33.358Z,7.25
2022-12-22T07:03:00.773Z,2.45
2022-12-22T07:05:27.988Z,6.85
2022-12-22T07:07:54.892Z,10.57
2022-12-22T07:10:41.848Z,10.68
2022-12-22T07:13:19.663Z,0.63
2022-12-22T07:15:53.865Z,1.17
2022-12-22T07:18:26.758Z,4.10
2022-12-22T07:20:54.937Z,10.88
2022-12-22T07:23:21.922Z,2.08
2022-12-22T07:25:48.853Z,2.60
2022-12-22T07:28:20.733Z,2.33
2022-12-22T07:30:50.336Z,1.70
2022-12-22T07:33:18.286Z,2.00
2022-12-22T07:35:45.552Z,4.60
2022-12-22T07:38:13.162Z,1.80
2022-12-22T07:40:42.368Z,1.33
2022-12-22T07:43:10.426Z,4.38
2022-12-22T07:45:37.366Z,2.33
2022-12-22T07:48:24.735Z,4.47
2022-12-22T07:50:52.135Z,10.98
2022-12-22T07:53:19.086Z,4.97
2022-12-22T07:55:45.963Z,6.82
2022-12-22T07:58:12.835Z,6.00
2022-12-22T08:00:40.218Z,3.35
2022-12-22T08:03:07.351Z,3.35
2022-12-22T08:05:34.403Z,6.45
2022-12-22T08:08:01.293Z,4.65
2022-12-22T08:10:28.640Z,3.05
2022-12-22T08:12:56.861Z,0.30
2022-12-22T08:15:24.228Z,7.00
2022-12-22T08:17:51.754Z,4.65
2022-12-22T08:20:18.708Z,2.67
2022-12-22T08:22:45.613Z,6.63
2022-12-22T08:25:12.544Z,3.47
2022-12-22T08:27:49.373Z,6.22
2022-12-22T08:30:16.782Z,3.42
2022-12-22T08:32:47.211Z,3.17
2022-12-22T08:35:14.666Z,3.17
2022-12-22T08:37:45.366Z,4.32
2022-12-22T08:40:20.106Z,2.28
2022-12-22T08:42:48.214Z,6.55
2022-12-22T08:45:15.163Z,5.68
2022-12-22T08:47:42.744Z,2.92
2022-12-22T08:50:10.180Z,7.53
2022-12-22T08:52:37.925Z,3.28
2022-12-22T08:55:05.198Z,4.50
2022-12-22T08:57:32.119Z,6.55
2022-12-22T08:59:59.642Z,6.55
2022-12-22T09:02:27.757Z,1.38
2022-12-22T09:04:54.928Z,2.05
2022-12-22T09:07:21.864Z,7.03
2022-12-22T09:09:49.401Z,1.98
2022-12-22T09:12:16.744Z,4.30
2022-12-22T09:14:44.048Z,3.83
2022-12-22T09:17:11.426Z,2.25
2022-12-22T09:19:38.448Z,8.77
2022-12-22T09:22:05.417Z,6.03
2022-12-22T09:24:32.361Z,15.90
2022-12-22T09:26:59.429Z,4.45
2022-12-22T09:29:26.314Z,5.47
2022-12-22T09:31:53.309Z,7.18
2022-12-22T09:34:20.245Z,6.22
2022-12-22T09:36:47.906Z,7.10
2022-12-22T09:39:16.168Z,4.47
2022-12-22T09:41:51.175Z,3.65
2022-12-22T09:44:36.885Z,6.55
2022-12-22T09:47:16.973Z,10.43
2022-12-22T09:49:44.103Z,6.88
2022-12-22T09:52:33.381Z,2.80
2022-12-22T09:55:02.135Z,12.00
2022-12-22T09:57:33.433Z,8.82
2022-12-22T10:00:16.305Z,9.55
2022-12-22T10:03:00.723Z,6.65
2022-12-22T10:05:57.283Z,4.70
2022-12-22T10:08:34.054Z,9.32
2022-12-22T10:11:01.277Z,6.22
2022-12-22T10:13:28.266Z,3.72
2022-12-22T10:15:55.933Z,4.13
2022-12-22T10:18:28.922Z,9.77
2022-12-22T10:21:14.347Z,6.68
2022-12-22T10:23:49.046Z,9.10
2022-12-22T10:26:30.770Z,9.02
2022-12-22T10:29:06.727Z,1.17
2022-12-22T10:31:36.920Z,4.35
2022-12-22T10:34:13.825Z,6.22
2022-12-22T10:36:47.329Z,6.38
2022-12-22T10:39:23.926Z,7.88
2022-12-22T10:41:55.178Z,5.65
2022-12-22T10:44:28.980Z,10.00
2022-12-22T10:46:58.887Z,2.42
2022-12-22T10:52:29.541Z,4.75
2022-12-22T10:55:25.773Z,10.70
2022-12-22T10:58:16.683Z,8.95
2022-12-22T11:00:45.175Z,8.02
2022-12-22T11:03:19.193Z,8.05
2022-12-22T11:05:49.719Z,6.78
2022-12-22T11:08:19.333Z,6.30
2022-12-22T11:11:06.025Z,2.30
2022-12-22T11:14:00.928Z,3.83
2022-12-22T11:17:03.719Z,12.77
2022-12-22T11:19:53.663Z,5.88
2022-12-22T11:22:37.226Z,6.32
2022-12-22T11:25:29.925Z,13.25
2022-12-22T11:28:28.392Z,5.82
2022-12-22T11:31:22.498Z,11.00
2022-12-22T11:34:28.115Z,10.57
2022-12-22T11:37:56.377Z,4.10
2022-12-22T11:40:38.407Z,4.22
2022-12-22T11:43:53.411Z,4.70
2022-12-22T11:46:29.369Z,9.05
2022-12-22T11:49:41.791Z,1.55
2022-12-22T11:52:41.178Z,3.55
2022-12-22T11:55:19.659Z,2.05
2022-12-22T11:57:58.195Z,4.25
2022-12-22T12:00:42.690Z,1.75
2022-12-22T12:03:40.958Z,4.25
2022-12-22T12:06:17.534Z,3.95
2022-12-22T12:09:05.430Z,1.98
2022-12-22T12:11:36.641Z,2.10
2022-12-22T12:14:35.516Z,3.43
2022-12-22T12:17:38.998Z,2.30
2022-12-22T12:20:49.948Z,1.67
2022-12-22T12:23:40.538Z,5.40
2022-12-22T12:26:32.242Z,3.63
2022-12-22T12:29:23.123Z,0.28
2022-12-22T12:32:21.779Z,0.80
2022-12-22T12:34:52.971Z,2.90
2022-12-22T12:37:30.827Z,0.43
2022-12-22T12:40:16.781Z,0.65
2022-12-22T12:42:46.924Z,3.55
2022-12-22T12:45:37.485Z,3.40
2022-12-22T12:48:25.326Z,3.17
2022-12-22T12:50:54.505Z,2.13
2022-12-22T12:53:27.150Z,2.30
2022-12-22T12:56:00.337Z,9.05
2022-12-22T12:58:37.687Z,6.13
2022-12-22T13:01:18.734Z,0.82
2022-12-22T13:04:03.464Z,1.77
2022-12-22T13:06:51.226Z,0.32
2022-12-22T13:12:48.407Z,4.03
2022-12-22T13:15:39.060Z,0.20
2022-12-22T13:18:24.896Z,4.85
2022-12-22T13:21:34.344Z,1.48
2022-12-22T13:24:22.855Z,1.75
2022-12-22T13:26:55.101Z,0.80
2022-12-22T13:29:47.343Z,0.70
2022-12-22T13:32:33.921Z,6.18
2022-12-22T13:35:32.538Z,2.10
2022-12-22T13:38:01.231Z,4.65
2022-12-22T13:40:49.179Z,1.98
2022-12-22T13:43:18.000Z,1.75
2022-12-22T13:45:50.982Z,5.05
2022-12-22T13:48:44.753Z,8.35
2022-12-22T13:51:35.924Z,1.85
2022-12-22T13:54:20.000Z,0.93
2022-12-22T13:56:50.995Z,1.65
2022-12-22T13:59:28.709Z,1.48
2022-12-22T14:02:17.426Z,2.33
2022-12-22T14:05:05.851Z,0.68
2022-12-22T14:07:32.839Z,0.20
2022-12-22T14:09:59.949Z,2.25
2022-12-22T14:12:36.929Z,1.60
2022-12-22T14:15:09.234Z,2.53
2022-12-22T14:17:42.261Z,1.00
2022-12-22T14:20:35.623Z,2.60
2022-12-22T14:23:15.876Z,0.50
2022-12-22T14:25:44.953Z,3.75
2022-12-22T14:28:27.850Z,0.40
2022-12-22T14:30:58.838Z,0.60
2022-12-22T14:33:28.324Z,1.30
2022-12-22T14:36:26.704Z,1.15
2022-12-22T14:38:57.117Z,0.95
2022-12-22T14:41:41.487Z,1.80
2022-12-22T14:44:18.687Z,1.25
2022-12-22T14:47:12.218Z,3.50
2022-12-22T14:49:50.139Z,1.70
2022-12-22T14:52:46.399Z,2.42
2022-12-22T14:55:35.111Z,1.98
2022-12-22T14:58:06.691Z,1.77
2022-12-22T15:00:41.787Z,0.50
2022-12-22T15:03:34.393Z,3.13
2022-12-22T15:06:24.993Z,5.35
2022-12-22T15:08:54.358Z,4.72
2022-12-22T15:11:24.093Z,6.85
2022-12-22T15:13:52.224Z,0.32
2022-12-22T15:16:21.747Z,3.42
2022-12-22T15:18:50.359Z,6.22
2022-12-22T15:21:19.201Z,5.40
2022-12-22T15:23:47.034Z,8.85
2022-12-22T15:26:15.021Z,6.57
2022-12-22T15:28:42.330Z,5.00
2022-12-22T15:31:17.061Z,6.68
2022-12-22T15:33:45.301Z,9.75
2022-12-22T15:36:14.264Z,4.32
2022-12-22T15:38:41.700Z,5.25
2022-12-22T15:41:08.647Z,3.80
2022-12-22T15:46:22.834Z,3.17
2022-12-22T15:48:50.248Z,3.88
2022-12-22T15:51:25.872Z,5.88
2022-12-22T15:53:55.071Z,3.83
2022-12-22T15:56:25.115Z,8.60
2022-12-22T15:58:53.018Z,6.65
2022-12-22T16:01:20.427Z,4.15
2022-12-22T16:03:47.831Z,9.88
2022-12-22T16:06:17.651Z,2.60
2022-12-22T16:08:49.759Z,1.95
2022-12-22T16:11:17.446Z,5.32
2022-12-22T16:13:45.126Z,8.25
2022-12-22T16:16:12.547Z,6.28
2022-12-22T16:18:39.564Z,4.05
2022-12-22T16:21:17.508Z,8.57
2022-12-22T16:23:47.049Z,6.63
2022-12-22T16:26:20.467Z,7.22
2022-12-22T16:28:47.585Z,2.08
2022-12-22T16:31:21.620Z,7.63
2022-12-22T16:33:50.054Z,7.22
2022-12-22T16:36:17.113Z,8.85
2022-12-22T16:38:45.974Z,5.43
2022-12-22T16:41:22.793Z,6.43
2022-12-22T16:46:39.115Z,15.05
2022-12-22T16:49:09.121Z,8.73
2022-12-22T16:51:53.432Z,6.28
2022-12-22T16:54:26.178Z,6.22
2022-12-22T16:56:53.142Z,7.20
2022-12-22T16:59:20.460Z,6.35
2022-12-22T17:02:09.355Z,3.13
2022-12-22T17:04:40.283Z,7.00
2022-12-22T17:07:09.224Z,3.15
2022-12-22T17:09:55.905Z,10.00
2022-12-22T17:12:27.670Z,6.55
2022-12-22T17:14:56.289Z,4.88
2022-12-22T17:17:32.042Z,3.35
2022-12-22T17:20:02.684Z,9.40
2022-12-22T17:22:34.398Z,10.35
2022-12-22T17:25:04.603Z,10.82
2022-12-22T17:27:33.585Z,3.70
2022-12-22T17:30:04.223Z,5.10
2022-12-22T17:32:31.166Z,11.75
2022-12-22T17:34:58.195Z,3.35
2022-12-22T17:37:25.315Z,5.45
2022-12-22T17:39:57.358Z,3.80
2022-12-22T17:42:24.765Z,1.73
2022-12-22T17:44:52.410Z,7.07
2022-12-22T17:47:30.492Z,7.40
2022-12-22T17:49:59.384Z,7.50
2022-12-22T17:52:27.970Z,18.27
2022-12-22T17:54:55.580Z,6.05
2022-12-22T17:57:32.929Z,7.35
2022-12-22T18:00:00.583Z,3.22
2022-12-22T18:02:28.153Z,3.30
2022-12-22T18:04:55.272Z,18.92
2022-12-22T18:07:24.761Z,11.77
2022-12-22T18:09:57.219Z,5.38
2022-12-22T18:12:24.787Z,10.00
2022-12-22T18:14:52.673Z,13.05
2022-12-22T18:17:35.524Z,6.63
2022-12-22T18:20:03.854Z,13.50
2022-12-22T18:22:32.056Z,11.45
2022-12-22T18:24:59.515Z,6.95
2022-12-22T18:27:27.080Z,7.32
2022-12-22T18:29:54.503Z,10.80
2022-12-22T18:32:27.511Z,8.13
2022-12-22T18:34:55.477Z,11.07
2022-12-22T18:37:25.612Z,3.58
2022-12-22T18:39:53.307Z,16.23
2022-12-22T18:42:23.585Z,8.38
2022-12-22T18:44:51.615Z,15.70
2022-12-22T18:47:19.179Z,12.57
2022-12-22T18:49:46.683Z,12.35
2022-12-22T18:52:22.143Z,15.98
2022-12-22T18:54:49.949Z,8.43
2022-12-22T18:57:21.515Z,15.20
2022-12-22T18:59:49.126Z,13.38
2022-12-22T19:02:21.394Z,22.90
2022-12-22T19:04:50.704Z,12.88
2022-12-22T19:07:22.274Z,15.20
2022-12-22T19:09:49.990Z,23.23
2022-12-22T19:12:25.297Z,10.77
2022-12-22T19:15:05.545Z,14.13
2022-12-22T19:17:33.015Z,10.88
2022-12-22T19:20:00.191Z,13.57
2022-12-22T19:22:27.943Z,17.48
2022-12-22T19:24:57.663Z,10.52
2022-12-22T19:27:26.768Z,14.05
2022-12-22T19:30:03.124Z,12.52
2022-12-22T19:32:46.139Z,12.70
2022-12-22T19:35:23.105Z,12.13
2022-12-22T19:37:54.851Z,9.90
2022-12-22T19:40:26.795Z,11.25
2022-12-22T19:42:56.343Z,10.18
2022-12-22T19:45:35.412Z,5.30
2022-12-22T19:48:04.666Z,7.63
2022-12-22T19:50:32.290Z,11.98
2022-12-22T19:53:02.169Z,12.25
2022-12-22T19:55:32.477Z,12.07
2022-12-22T19:58:00.154Z,9.52
2022-12-22T20:00:27.927Z,11.00
2022-12-22T20:02:57.118Z,10.73
2022-12-22T20:05:24.391Z,9.68
2022-12-22T20:07:53.930Z,6.82
2022-12-22T20:10:22.160Z,13.15
2022-12-22T20:12:51.979Z,6.78
2022-12-22T20:15:22.936Z,8.40
2022-12-22T20:17:52.412Z,8.98
2022-12-22T20:20:42.120Z,9.80
2022-12-22T20:23:21.460Z,11.25
2022-12-22T20:25:58.619Z,16.20
2022-12-22T20:28:32.985Z,11.95
2022-12-22T20:31:02.530Z,19.55
2022-12-22T20:33:30.525Z,8.95
2022-12-22T20:36:00.227Z,14.13
2022-12-22T20:38:42.036Z,11.90
2022-12-22T20:41:10.474Z,6.50
2022-12-22T20:43:38.505Z,11.95
2022-12-22T20:46:24.063Z,5.65
2022-12-22T20:49:02.935Z,14.20
2022-12-22T20:51:33.161Z,6.22
2022-12-22T20:54:00.887Z,6.30
2022-12-22T20:56:35.156Z,6.18
2022-12-22T20:59:27.453Z,14.60
2022-12-22T21:01:54.601Z,8.48
2022-12-22T21:04:22.217Z,12.15
2022-12-22T21:06:52.526Z,7.43
2022-12-22T21:09:26.758Z,6.75
2022-12-22T21:11:53.636Z,11.85
2022-12-22T21:14:22.138Z,7.07
2022-12-22T21:16:49.325Z,7.28
2022-12-22T21:19:18.871Z,12.93
2022-12-22T21:21:46.465Z,13.00
2022-12-22T21:24:13.449Z,11.85
2022-12-22T21:26:45.274Z,5.32
2022-12-22T21:29:24.342Z,8.23
2022-12-22T21:31:52.459Z,4.38
2022-12-22T21:34:23.360Z,3.35
2022-12-22T21:37:12.207Z,2.50
2022-12-22T21:40:21.679Z,3.58
2022-12-22T21:42:50.021Z,5.70
2022-12-22T21:45:23.912Z,3.40
2022-12-22T21:47:51.294Z,6.38
2022-12-22T21:50:27.922Z,4.13
2022-12-22T21:52:55.697Z,1.23
2022-12-22T21:55:34.384Z,2.50
2022-12-22T21:58:01.784Z,2.42
2022-12-22T22:00:30.246Z,3.58
2022-12-22T22:02:57.782Z,3.00
2022-12-22T22:05:37.278Z,3.33
2022-12-22T22:08:07.686Z,5.30
2022-12-22T22:10:40.923Z,3.95
2022-12-22T22:13:10.040Z,6.70
2022-12-22T22:15:37.695Z,4.70
2022-12-22T22:18:07.556Z,2.75
2022-12-22T22:20:35.181Z,2.00
2022-12-22T22:23:02.079Z,4.40
2022-12-22T22:25:29.363Z,7.43
2022-12-22T22:27:59.817Z,5.45
2022-12-22T22:30:26.913Z,9.75
2022-12-22T22:32:55.419Z,14.70
2022-12-22T22:35:26.626Z,5.43
2022-12-22T22:37:53.706Z,2.70
2022-12-22T22:40:22.804Z,6.47
2022-12-22T22:42:50.190Z,3.63
2022-12-22T22:45:23.142Z,9.40
2022-12-22T22:47:52.083Z,10.13
2022-12-22T22:50:21.275Z,8.65
2022-12-22T22:52:48.529Z,5.28
2022-12-22T22:55:16.083Z,1.45
2022-12-22T22:57:43.846Z,3.03
2022-12-22T23:00:15.353Z,5.72
2022-12-22T23:02:43.707Z,2.88
2022-12-22T23:05:16.938Z,7.13
2022-12-22T23:07:47.503Z,2.10
2022-12-22T23:10:14.507Z,3.22
2022-12-22T23:12:41.413Z,8.93
2022-12-22T23:15:08.963Z,5.43
2022-12-22T23:17:35.874Z,7.57
2022-12-22T23:20:03.482Z,5.95
2022-12-22T23:22:30.403Z,4.05
2022-12-22T23:24:57.312Z,3.13
2022-12-22T23:27:24.394Z,7.13
2022-12-22T23:29:51.292Z,5.35
2022-12-22T23:32:18.173Z,1.02
2022-12-22T23:34:45.086Z,3.10
2022-12-22T23:37:18.741Z,2.25
2022-12-22T23:39:46.682Z,4.22
2022-12-22T23:42:13.633Z,2.72
2022-12-22T23:44:40.536Z,6.53
2022-12-22T23:47:07.786Z,5.70
2022-12-22T23:49:34.785Z,1.67
2022-12-22T23:52:01.733Z,3.08
2022-12-22T23:54:30.312Z,2.97
2022-12-22T23:56:57.920Z,5.57
2022-12-22T23:59:25.001Z,2.20
